METAR Data
IDs: Format: Raw Decoded Include TAF

Data at: 0122 UTC 06 Dec 2019

KCNY 060053Z AUTO 31004KT 10SM CLR 04/02 A3019 RMK AO2 SLP229 T00390022
KCNY 052353Z AUTO 28006KT 10SM CLR 06/03 A3017 RMK AO2 SLP221 T00560028 10083 20050 51022
KCNY 052253Z AUTO 29006KT 10SM CLR 07/03 A3015 RMK AO2 SLP209 T00720033
KCNY 052232Z AUTO 31007KT 10SM SCT023 08/03 A3014 RMK AO2 T00780033
KCNY 052215Z AUTO 31007KT 10SM SCT020 BKN025 07/04 A3014 RMK AO2 T00720039
KCNY 052153Z AUTO 30006KT 10SM FEW021 08/04 A3013 RMK AO2 SLP201 T00780039
KCNY 052112Z AUTO VRB03KT 10SM FEW017 08/04 A3010 RMK AO2 T00780039
KCNY 052053Z AUTO 32004KT 10SM BKN015 07/03 A3010 RMK AO2 SLP195 T00670033 54000
KCNY 052042Z AUTO 31006KT 10SM BKN015 08/04 A3010 RMK AO2 T00780044
KCNY 051953Z AUTO 27005KT 10SM SCT012 07/04 A3010 RMK AO2 SLP195 T00670039
KCNY 051948Z AUTO 27006KT 10SM SCT012 07/04 A3010 RMK AO2
KCNY 051933Z AUTO 28006KT 10SM BKN012 06/04 A3010 RMK AO2 T00610039
KCNY 051912Z AUTO 28008KT 10SM BKN009 BKN013 07/04 A3010 RMK AO2 T00670044
KCNY 051901Z AUTO 27012KT 10SM SCT009 06/04 A3010 RMK AO2 T00610044
KCNY 051853Z AUTO 30011KT 10SM SCT009 BKN013 06/04 A3010 RMK AO2 SLP195 T00610044
KCNY 051846Z AUTO 30011KT 10SM BKN008 BKN013 OVC020 06/04 A3010 RMK AO2 CIG 007V012 T00560044
KCNY 051832Z AUTO 32010KT 10SM FEW008 BKN013 OVC019 05/04 A3010 RMK AO2 T00500039
KCNY 051800Z AUTO 31005KT 10SM BKN012 BKN021 06/04 A3009 RMK AO2 T00610039
KCNY 051753Z AUTO 32005KT 10SM SCT011 BKN021 06/04 A3009 RMK AO2 SLP192 60005 T00560039 10061 20022 51020
KCNY 051723Z AUTO 00000KT 10SM FEW009 SCT029 06/03 A3008 RMK AO2 T00560033
KCNY 051653Z AUTO 36003KT 10SM FEW095 06/04 A3008 RMK AO2 SLP187 T00560039
KCNY 051553Z AUTO 00000KT 10SM SCT036 SCT050 OVC065 03/03 A3004 RMK AO2 RAE05 SLP177 P0000 T00330028
KCNY 051515Z AUTO 00000KT 10SM FEW021 BKN032 OVC046 03/03 A3003 RMK AO2 RAE05 P0000 T00280028
KCNY 051453Z AUTO 34003KT 5SM -RA BR BKN021 OVC030 03/03 A3002 RMK AO2 SLP172 P0003 60005 T00280028 53016
KCNY 051443Z AUTO 29003KT 6SM -RA BR BKN019 BKN025 OVC032 03/02 A3002 RMK AO2 P0003 T00280022
KCNY 051353Z AUTO 00000KT 6SM -RA BR FEW014 OVC033 03/02 A2999 RMK AO2 RAB30 SLP160 P0002 T00280022
KCNY 051350Z AUTO 26003KT 6SM -RA BR SCT014 OVC033 02/02 A2999 RMK AO2 RAB30 P0001
KCNY 051253Z AUTO 25003KT 10SM OVC014 03/02 A2997 RMK AO2 SLP151 T00280022
KCNY 051205Z AUTO 36006KT 10SM OVC014 03/02 A2996 RMK AO2 T00280022
KCNY 051153Z AUTO 36005KT 10SM OVC016 03/02 A2996 RMK AO2 SLP147 60005 70009 T00280022 10028 20022 53008
KCNY 051104Z AUTO 01003KT 10SM BKN015 OVC020 03/02 A2994 RMK AO2 T00280022
KCNY 051053Z AUTO 34004KT 10SM OVC013 03/02 A2995 RMK AO2 SLP139 T00280022
KCNY 050953Z AUTO 00000KT 10SM OVC016 03/02 A2994 RMK AO2 RAE04UPB0858E03 SLP137 P0000 T00280022
KCNY 050853Z AUTO 31004KT 7SM -RA BKN015 OVC025 02/02 A2993 RMK AO2 RAE24B44 SLP134 P0000 60005 T00220022 55003
KCNY 050800Z AUTO 35004KT 10SM -RA SCT018 OVC028 03/02 A2993 RMK AO2 P0000 T00280022
KCNY 050753Z AUTO 33004KT 10SM -RA SCT018 BKN030 OVC038 02/02 A2993 RMK AO2 RAE16B38UPB30E38 SLP136 P0001 T00220022
KCNY 050706Z AUTO 33005KT 9SM -RA FEW012 BKN034 OVC042 03/02 A2994 RMK AO2 P0001 T00280022
KCNY 050653Z AUTO 32005KT 6SM -RA BR BKN021 OVC042 03/02 A2994 RMK AO2 UPB02E03 SLP141 P0004 T00280022 400781033
KCNY 050553Z AUTO 31006KT 10SM -RA BKN025 OVC032 03/02 A2995 RMK AO2 SLP147 P0002 60004 T00280022 10056 20028 56003
KCNY 050453Z AUTO 29004KT 10SM -RA SCT034 OVC045 03/02 A2995 RMK AO2 SLP148 P0001 T00330017
KCNY 050353Z AUTO 35003KT 8SM -RA BKN043 OVC049 03/02 A2995 RMK AO2 RAB02 SLP154 P0001 T00330022
KCNY 050253Z AUTO 32003KT 10SM OVC070 04/01 A2996 RMK AO2 RAB06E40 SLP158 P0000 60000 T00390011 58012
KCNY 050153Z AUTO 00000KT 10SM SCT065 BKN080 OVC090 05/01 A2998 RMK AO2 SLP163 T00500006
KCNY 050053Z AUTO 31004KT 10SM OVC060 05/01 A2999 RMK AO2 SLP168 T00500006
KCNY 042353Z AUTO 31004KT 10SM BKN055 06/01 A3000 RMK AO2 SLP170 T00560006 10078 20028 56017
KCNY 042253Z AUTO 00000KT 10SM SCT055 07/M01 A3002 RMK AO2 SLP174 T00671011
KCNY 042153Z AUTO 00000KT 10SM CLR 07/M01 A3004 RMK AO2 SLP176 T00671011
KCNY 042053Z AUTO 00000KT 10SM CLR 07/M01 A3006 RMK AO2 SLP186 T00721006 58029
KCNY 041953Z AUTO 00000KT 10SM CLR 07/M01 A3009 RMK AO2 SLP200 T00671011
KCNY 041853Z AUTO VRB04KT 10SM CLR 04/M01 A3012 RMK AO2 SLP215 T00441011
KCNY 041753Z AUTO 32005KT 10SM CLR 03/M01 A3015 RMK AO2 SLP228 T00281006 10028 21028 58002
KCNY 041653Z AUTO 33007KT 10SM CLR 02/M01 A3017 RMK AO2 SLP235 T00171011
KCNY 041553Z AUTO 00000KT 10SM CLR 00/M02 A3016 RMK AO2 SLP235 T00001017
KCNY 041453Z AUTO 33007KT 10SM CLR M02/M03 A3016 RMK AO2 SLP237 T10221033 55004
KCNY 041353Z AUTO 00000KT 10SM CLR M02/M03 A3015 RMK AO2 SLP234 T10221033